Time;durP1;ratioP1;P1;durP2;ratioP2;P2;SDS_P1;SDS_P2;PMS_P1;PMS_P2;Temp;Humidity;BMP_temperature;BMP_pressure;BME280_temperature;BME280_humidity;BME280_pressure;Samples;Min_cycle;Max_cycle;Signal;HPM_P1;HPM_P2
2023/01/25 00:01:07;;;;;;;14.05;6.80;;;;;;;9.78;80.68;103043.28;5010657;28;20057;-81
2023/01/25 00:03:36;;;;;;;16.40;7.90;;;;;;;9.70;80.68;103036.66;5009144;28;20046;-80
2023/01/25 00:06:06;;;;;;;13.07;7.05;;;;;;;9.73;80.77;103044.63;5010188;28;20054;-76
2023/01/25 00:08:35;;;;;;;16.58;8.05;;;;;;;9.70;81.35;103039.25;5005727;28;20062;-79
2023/01/25 00:11:03;;;;;;;14.48;7.22;;;;;;;9.66;81.69;103037.22;5010038;28;20050;-82
2023/01/25 00:13:32;;;;;;;12.48;6.20;;;;;;;9.63;81.92;103042.19;5013122;28;20510;-80
2023/01/25 00:16:03;;;;;;;13.05;6.72;;;;;;;9.60;82.16;103047.16;5012444;28;20046;-76
2023/01/25 00:18:31;;;;;;;14.77;6.95;;;;;;;9.54;82.73;103039.84;5012231;28;20514;-75
2023/01/25 00:21:00;;;;;;;15.52;7.38;;;;;;;9.48;81.94;103039.41;5011892;28;20050;-75
2023/01/25 00:23:30;;;;;;;12.98;6.20;;;;;;;9.37;83.03;103043.84;5012226;28;20058;-75
2023/01/25 00:25:59;;;;;;;13.95;7.15;;;;;;;9.29;84.16;103039.81;5008836;28;20567;-84
2023/01/25 00:28:28;;;;;;;15.70;7.43;;;;;;;9.24;84.07;103033.44;5005495;28;20104;-80
2023/01/25 00:31:00;;;;;;;17.63;7.78;;;;;;;9.16;84.67;103037.13;5009475;28;20049;-83
2023/01/25 00:33:39;;;;;;;;;;;;;;;9.08;84.86;103027.94;5003770;28;20046;-83
2023/01/25 00:36:32;;;;;;;15.30;8.02;;;;;;;9.04;86.58;103031.97;5011327;28;19931;-84
2023/01/25 00:39:02;;;;;;;;;;;;;;;9.02;86.21;103047.41;5010789;28;20065;-83
2023/01/25 00:41:31;;;;;;;17.55;8.05;;;;;;;9.00;86.77;103048.97;5012590;28;19921;-82
2023/01/25 00:43:59;;;;;;;12.75;6.78;;;;;;;8.91;86.64;103043.13;5010521;28;20512;-83
2023/01/25 00:46:28;;;;;;;10.63;6.25;;;;;;;8.85;87.97;103040.09;5008761;28;20128;-83
2023/01/25 00:48:57;;;;;;;12.63;6.45;;;;;;;8.77;88.02;103046.38;4993743;28;20042;-82
2023/01/25 00:51:26;;;;;;;17.13;7.40;;;;;;;8.72;88.37;103045.13;5006262;28;20053;-83
2023/01/25 00:53:55;;;;;;;16.77;6.88;;;;;;;8.67;89.13;103051.66;4998555;28;20048;-83
2023/01/25 00:56:25;;;;;;;17.38;6.55;;;;;;;8.61;89.50;103062.41;5000749;28;20050;-83
2023/01/25 00:58:54;;;;;;;15.80;6.82;;;;;;;8.52;89.56;103059.13;5008018;28;20102;-82
2023/01/25 01:01:23;;;;;;;14.77;6.57;;;;;;;8.39;91.63;103057.28;5004944;28;20058;-84
2023/01/25 01:03:53;;;;;;;13.60;7.20;;;;;;;8.32;92.20;103055.94;5010163;28;20046;-83
2023/01/25 01:06:22;;;;;;;12.65;6.63;;;;;;;8.30;93.10;103062.66;5011458;28;20050;-83
2023/01/25 01:08:50;;;;;;;17.60;7.10;;;;;;;8.27;93.24;103043.44;5011653;28;20056;-84
2023/01/25 01:11:19;;;;;;;14.57;7.15;;;;;;;8.21;93.85;103040.44;5001544;28;20052;-84
2023/01/25 01:13:49;;;;;;;17.17;6.88;;;;;;;8.23;94.42;103037.19;5011913;28;20045;-84
2023/01/25 01:16:18;;;;;;;13.50;6.40;;;;;;;8.23;95.22;103042.34;5011340;28;20064;-81
2023/01/25 01:18:47;;;;;;;16.83;5.15;;;;;;;8.23;94.22;103046.63;5011460;28;20042;-78
2023/01/25 01:21:16;;;;;;;10.23;5.45;;;;;;;8.21;95.46;103043.00;5011684;28;20404;-81
2023/01/25 01:23:45;;;;;;;15.13;5.55;;;;;;;8.19;95.33;103045.47;4999139;28;20085;-82
2023/01/25 01:26:15;;;;;;;11.27;5.40;;;;;;;8.13;95.05;103043.34;5005713;28;20046;-83
2023/01/25 01:28:44;;;;;;;15.02;6.45;;;;;;;8.02;95.76;103036.47;5006038;28;20110;-83
2023/01/25 01:31:16;;;;;;;10.35;5.03;;;;;;;8.06;95.63;103043.63;5010531;28;20163;-82
2023/01/25 01:33:45;;;;;;;10.10;4.80;;;;;;;8.06;96.84;103048.78;5003441;28;20508;-82
2023/01/25 01:36:17;;;;;;;12.70;5.50;;;;;;;8.07;97.16;103060.03;5001757;28;20042;-77
2023/01/25 01:38:45;;;;;;;12.48;5.35;;;;;;;8.05;95.62;103049.56;5002877;28;20546;-79
2023/01/25 01:41:15;;;;;;;8.90;4.72;;;;;;;8.04;96.21;103052.03;5007206;28;20480;-77
2023/01/25 01:43:44;;;;;;;12.32;5.43;;;;;;;8.01;95.99;103057.84;5010190;28;20037;-75
2023/01/25 01:46:22;;;;;;;12.88;5.28;;;;;;;7.99;97.17;103054.25;5007950;28;20101;-79
2023/01/25 01:48:55;;;;;;;10.57;4.93;;;;;;;7.89;96.67;103036.31;5008598;28;20045;-76
2023/01/25 01:51:24;;;;;;;;;;;;;;;7.87;96.59;103040.44;4999816;28;20050;-78
2023/01/25 01:53:58;;;;;;;7.70;4.35;;;;;;;7.83;97.24;103048.69;5002988;28;19925;-79
2023/01/25 01:56:32;;;;;;;11.10;5.30;;;;;;;7.83;97.61;103046.13;5002455;28;20085;-76
2023/01/25 01:59:02;;;;;;;11.90;5.93;;;;;;;7.82;98.07;103039.19;5012914;28;20042;-77
2023/01/25 02:01:33;;;;;;;11.57;5.50;;;;;;;7.83;99.06;103039.28;5010557;28;20149;-78
2023/01/25 02:04:06;;;;;;;9.82;4.90;;;;;;;7.84;99.28;103035.06;4994967;28;20051;-86
2023/01/25 02:06:43;;;;;;;10.00;5.20;;;;;;;7.81;98.17;103035.72;5008880;28;20415;-78
2023/01/25 02:09:13;;;;;;;9.93;4.97;;;;;;;7.72;97.69;103027.28;5005906;28;20126;-77
2023/01/25 02:11:42;;;;;;;7.72;3.95;;;;;;;7.63;99.85;103032.59;5009120;28;20050;-76
2023/01/25 02:14:11;;;;;;;11.50;4.97;;;;;;;7.50;100.00;103024.69;5010093;28;20069;-80
2023/01/25 02:16:44;;;;;;;14.18;5.45;;;;;;;7.52;100.00;103029.19;5004696;28;20122;-81
2023/01/25 02:19:20;;;;;;;13.13;5.68;;;;;;;7.52;100.00;103018.88;4999225;28;20080;-81
2023/01/25 02:21:53;;;;;;;11.60;6.18;;;;;;;7.50;100.00;103028.16;5007804;28;20043;-78
2023/01/25 02:24:27;;;;;;;9.90;5.45;;;;;;;7.48;99.46;103022.00;4998107;28;20076;-76
2023/01/25 02:26:58;;;;;;;11.07;5.20;;;;;;;7.45;98.96;103024.34;5012081;28;20049;-75
2023/01/25 02:29:28;;;;;;;13.68;6.50;;;;;;;7.42;99.59;103021.53;5011207;28;20487;-77
2023/01/25 02:32:03;;;;;;;12.50;6.07;;;;;;;7.40;99.86;103027.31;5006158;28;20141;-75
2023/01/25 02:34:31;;;;;;;14.68;5.25;;;;;;;7.33;98.41;103034.56;5004520;28;20045;-77
2023/01/25 02:37:00;;;;;;;12.27;5.20;;;;;;;7.29;97.62;103036.78;5005986;28;20046;-75
2023/01/25 02:39:30;;;;;;;14.48;6.30;;;;;;;7.24;98.84;103032.91;5002887;28;20050;-77
2023/01/25 02:42:00;;;;;;;12.88;6.32;;;;;;;7.22;100.00;103039.66;5009777;28;20050;-77
2023/01/25 02:44:32;;;;;;;16.05;6.72;;;;;;;7.19;100.00;103037.72;5012049;28;20514;-76
2023/01/25 02:47:01;;;;;;;9.60;5.55;;;;;;;7.16;99.48;103028.84;4999662;28;20042;-74
2023/01/25 02:49:30;;;;;;;12.13;5.95;;;;;;;7.06;98.49;103035.84;4999377;28;20064;-72
2023/01/25 02:51:59;;;;;;;16.75;4.90;;;;;;;6.99;100.00;103042.97;5008561;28;20076;-81
2023/01/25 02:54:27;;;;;;;8.73;5.43;;;;;;;6.89;100.00;103026.78;5008686;28;20415;-77
2023/01/25 02:56:56;;;;;;;15.00;6.07;;;;;;;6.84;100.00;103024.59;5011417;28;20042;-77
2023/01/25 02:59:27;;;;;;;12.60;6.75;;;;;;;6.82;100.00;103027.03;5003327;28;20049;-77
2023/01/25 03:01:55;;;;;;;15.10;6.75;;;;;;;6.82;100.00;103032.19;5011401;28;20045;-76
2023/01/25 03:04:24;;;;;;;14.68;6.65;;;;;;;6.81;100.00;103029.50;5009333;28;20046;-75
2023/01/25 03:06:53;;;;;;;14.98;6.45;;;;;;;6.81;100.00;103032.06;5009618;28;20049;-74
2023/01/25 03:09:22;;;;;;;14.15;6.93;;;;;;;6.79;100.00;103028.47;5004278;28;20064;-75
2023/01/25 03:11:51;;;;;;;14.40;7.00;;;;;;;6.78;100.00;103025.00;5009547;28;20468;-74
2023/01/25 03:14:19;;;;;;;17.63;6.75;;;;;;;6.74;99.92;103025.53;5008475;28;20047;-74
2023/01/25 03:16:50;;;;;;;14.70;7.10;;;;;;;6.66;100.00;103022.31;5011307;28;20042;-75
2023/01/25 03:19:18;;;;;;;13.93;5.57;;;;;;;6.58;99.84;103017.34;5008156;28;20056;-75
2023/01/25 03:21:47;;;;;;;8.38;4.43;;;;;;;6.50;100.00;103020.19;5007602;28;20038;-75
2023/01/25 03:24:16;;;;;;;10.38;5.72;;;;;;;6.42;100.00;103016.06;4998258;28;20042;-73
2023/01/25 03:29:26;;;;;;;10.87;5.83;;;;;;;6.23;100.00;103017.88;4997451;28;20419;-73
2023/01/25 03:31:57;;;;;;;12.07;6.18;;;;;;;6.18;100.00;103034.59;5006883;28;20041;-73
2023/01/25 03:34:26;;;;;;;13.13;6.05;;;;;;;6.10;100.00;103035.63;5013462;28;20518;-75
2023/01/25 03:36:54;;;;;;;15.38;7.10;;;;;;;6.10;100.00;103038.22;5014983;28;20054;-75
2023/01/25 03:39:23;;;;;;;11.48;6.53;;;;;;;6.11;100.00;103040.88;5013682;28;20484;-75
2023/01/25 03:41:52;;;;;;;13.93;7.30;;;;;;;6.15;100.00;103036.91;5011597;28;20046;-73
2023/01/25 03:44:20;;;;;;;12.05;6.45;;;;;;;6.17;100.00;103048.22;5012792;28;20127;-74
2023/01/25 03:46:49;;;;;;;15.05;6.88;;;;;;;6.16;100.00;103051.56;5012323;28;20061;-74
2023/01/25 03:49:19;;;;;;;16.38;6.47;;;;;;;6.16;100.00;103051.56;5014431;28;20160;-76
2023/01/25 03:51:48;;;;;;;13.15;6.65;;;;;;;6.14;100.00;103053.09;5003965;28;20056;-75
2023/01/25 03:54:17;;;;;;;13.25;7.03;;;;;;;6.10;100.00;103051.06;5013753;28;20071;-74
2023/01/25 03:56:45;;;;;;;14.50;6.93;;;;;;;5.98;100.00;103046.69;5015312;28;20052;-77
2023/01/25 03:59:14;;;;;;;15.95;6.07;;;;;;;5.88;100.00;103059.47;5013738;28;20048;-79
2023/01/25 04:01:43;;;;;;;11.30;5.72;;;;;;;5.84;100.00;103047.13;5011886;28;20548;-80
2023/01/25 04:04:11;;;;;;;13.45;7.30;;;;;;;5.79;100.00;103061.25;5011848;28;20068;-75
2023/01/25 04:06:42;;;;;;;15.90;6.28;;;;;;;5.77;100.00;103065.34;5012712;28;20050;-73
2023/01/25 04:09:13;;;;;;;13.98;6.03;;;;;;;5.74;100.00;103070.22;5012976;28;20049;-75
2023/01/25 04:11:42;;;;;;;15.93;6.60;;;;;;;5.69;100.00;103064.69;4995759;28;20051;-75
2023/01/25 04:14:11;;;;;;;14.15;6.65;;;;;;;5.61;100.00;103074.31;4993528;28;20054;-74
2023/01/25 04:16:40;;;;;;;10.65;6.07;;;;;;;5.53;100.00;103085.59;4988619;28;20054;-74
2023/01/25 04:19:09;;;;;;;13.23;5.50;;;;;;;5.45;100.00;103086.56;4988229;28;20083;-74
2023/01/25 04:21:37;;;;;;;12.30;6.45;;;;;;;5.34;100.00;103080.50;4993377;28;20050;-75
2023/01/25 04:24:08;;;;;;;14.32;6.82;;;;;;;5.25;100.00;103069.44;4993444;28;20073;-78
2023/01/25 04:26:37;;;;;;;11.30;7.07;;;;;;;5.20;100.00;103086.06;4993169;28;20050;-77
2023/01/25 04:29:06;;;;;;;7.63;4.70;;;;;;;5.15;100.00;103080.53;4991806;28;20086;-78
2023/01/25 04:31:34;;;;;;;10.18;5.45;;;;;;;5.15;100.00;103072.84;4991525;28;20047;-78
2023/01/25 04:34:03;;;;;;;13.20;6.38;;;;;;;5.16;100.00;103086.59;5005074;28;20070;-75
2023/01/25 04:36:32;;;;;;;14.40;7.35;;;;;;;5.14;100.00;103081.31;4999808;28;20129;-78
2023/01/25 04:39:00;;;;;;;16.20;7.05;;;;;;;5.13;100.00;103082.09;4992778;28;20053;-82
2023/01/25 04:41:31;;;;;;;11.60;6.18;;;;;;;5.10;100.00;103086.94;4990484;28;20072;-79
2023/01/25 04:44:00;;;;;;;19.65;6.82;;;;;;;5.08;100.00;103091.03;4991088;28;20433;-78
2023/01/25 04:46:28;;;;;;;17.92;6.70;;;;;;;5.01;100.00;103087.00;4996554;28;20133;-77
2023/01/25 04:48:57;;;;;;;32.78;7.95;;;;;;;4.87;100.00;103078.84;4983833;28;20054;-78
2023/01/25 04:51:26;;;;;;;22.80;7.90;;;;;;;4.84;100.00;103097.44;4985571;28;20057;-77
2023/01/25 04:53:54;;;;;;;28.88;10.98;;;;;;;4.80;100.00;103103.03;4999029;28;20133;-77
2023/01/25 04:56:23;;;;;;;22.70;8.05;;;;;;;4.75;100.00;103091.47;4996646;28;20129;-78
2023/01/25 04:58:53;;;;;;;17.60;7.07;;;;;;;4.73;100.00;103091.34;4994639;28;20052;-79
2023/01/25 05:01:22;;;;;;;32.90;6.63;;;;;;;4.74;100.00;103090.59;4998048;28;20050;-77
2023/01/25 05:03:51;;;;;;;24.23;7.47;;;;;;;4.70;100.00;103087.59;4998979;28;20054;-77
2023/01/25 05:06:19;;;;;;;26.80;7.10;;;;;;;4.64;100.00;103087.03;4998288;28;20049;-77
2023/01/25 05:08:48;;;;;;;21.05;6.63;;;;;;;4.61;100.00;103103.06;5004159;28;20054;-80
2023/01/25 05:11:24;;;;;;;14.45;6.63;;;;;;;4.60;100.00;103102.16;5014120;28;20054;-75
2023/01/25 05:13:54;;;;;;;11.25;5.05;;;;;;;4.56;100.00;103101.75;5007696;28;20108;-76
2023/01/25 05:16:23;;;;;;;12.70;5.78;;;;;;;4.53;100.00;103109.13;5002654;28;20468;-74
2023/01/25 05:18:52;;;;;;;13.68;5.60;;;;;;;4.56;100.00;103117.13;5009074;28;20045;-78
2023/01/25 05:24:17;;;;;;;24.75;6.47;;;;;;;4.53;100.00;103115.16;4992226;28;20056;-77
2023/01/25 05:27:00;;;;;;;10.63;4.97;;;;;;;4.58;100.00;103121.63;5010681;28;20049;-77
2023/01/25 05:29:31;;;;;;;17.83;5.38;;;;;;;4.57;100.00;103119.81;5008978;28;20061;-78
2023/01/25 05:32:03;;;;;;;15.00;5.53;;;;;;;4.68;100.00;103137.84;5010392;28;20046;-78
2023/01/25 05:34:32;;;;;;;16.08;6.20;;;;;;;4.70;100.00;103139.78;4996933;28;20137;-78
2023/01/25 05:37:00;;;;;;;15.45;6.53;;;;;;;4.73;100.00;103129.81;5005295;28;20480;-78
2023/01/25 05:39:29;;;;;;;9.02;5.20;;;;;;;4.75;100.00;103129.94;5009394;28;20045;-79
2023/01/25 05:41:57;;;;;;;15.35;5.93;;;;;;;4.78;100.00;103133.69;5008539;28;20717;-79
2023/01/25 05:44:26;;;;;;;10.23;5.32;;;;;;;4.80;100.00;103132.16;5009068;28;20053;-77
2023/01/25 05:46:57;;;;;;;18.05;5.85;;;;;;;4.80;100.00;103129.59;5005307;28;20492;-77
2023/01/25 05:49:26;;;;;;;15.18;5.20;;;;;;;4.82;100.00;103120.38;4993328;28;20539;-79
2023/01/25 05:51:54;;;;;;;10.45;4.70;;;;;;;4.72;100.00;103116.81;5007480;28;20050;-79
2023/01/25 05:54:23;;;;;;;13.63;6.25;;;;;;;4.86;100.00;103136.06;5015478;28;20683;-77
2023/01/25 05:56:52;;;;;;;11.93;5.82;;;;;;;4.86;100.00;103143.75;5012504;28;20099;-79
2023/01/25 05:59:20;;;;;;;14.75;5.60;;;;;;;4.85;100.00;103144.50;5008454;28;20072;-79
2023/01/25 06:01:49;;;;;;;9.93;5.30;;;;;;;4.85;100.00;103157.34;5009453;28;20136;-79
2023/01/25 06:04:20;;;;;;;13.30;6.22;;;;;;;4.82;100.00;103152.81;5003193;28;20089;-78
2023/01/25 06:06:48;;;;;;;17.27;6.82;;;;;;;4.82;100.00;103155.41;5008704;28;20046;-78
2023/01/25 06:09:17;;;;;;;10.23;5.00;;;;;;;4.79;100.00;103150.88;5010167;28;20049;-78
2023/01/25 06:11:46;;;;;;;11.85;5.13;;;;;;;4.80;100.00;103155.25;5004425;28;20041;-76
2023/01/25 06:14:15;;;;;;;12.63;5.65;;;;;;;4.78;100.00;103151.63;5002154;28;20510;-78
2023/01/25 06:16:43;;;;;;;15.32;5.95;;;;;;;4.79;100.00;103148.31;5007859;28;20578;-78
2023/01/25 06:19:14;;;;;;;13.50;5.65;;;;;;;4.79;100.00;103144.88;5009232;28;20799;-77
2023/01/25 06:21:44;;;;;;;11.35;5.82;;;;;;;4.79;100.00;103139.75;5007343;28;20042;-77
2023/01/25 06:24:13;;;;;;;12.52;5.85;;;;;;;4.80;100.00;103150.13;4993227;28;20050;-76
2023/01/25 06:26:42;;;;;;;9.77;5.07;;;;;;;4.77;100.00;103152.41;4999918;28;20465;-78
2023/01/25 06:29:11;;;;;;;10.85;5.93;;;;;;;4.75;100.00;103153.94;5001305;28;20500;-77
2023/01/25 06:31:39;;;;;;;12.27;5.63;;;;;;;4.73;100.00;103150.31;5009988;28;20046;-77
2023/01/25 06:34:08;;;;;;;16.60;6.30;;;;;;;4.72;100.00;103153.66;5009330;28;20516;-77
2023/01/25 06:36:37;;;;;;;15.18;6.20;;;;;;;4.69;100.00;103150.78;5003841;28;20089;-76
2023/01/25 06:39:08;;;;;;;9.20;5.93;;;;;;;4.68;100.00;103151.56;5006345;28;20046;-76
2023/01/25 06:41:36;;;;;;;14.43;5.80;;;;;;;4.68;100.00;103153.25;5009743;28;20061;-76
2023/01/25 06:44:05;;;;;;;15.60;6.13;;;;;;;4.65;100.00;103150.38;5015177;28;20554;-76
2023/01/25 06:46:34;;;;;;;10.10;6.18;;;;;;;4.63;100.00;103147.69;5012183;28;20112;-76
2023/01/25 06:49:02;;;;;;;12.48;5.45;;;;;;;4.62;100.00;103151.00;5009841;28;20218;-76
2023/01/25 06:51:31;;;;;;;11.05;5.30;;;;;;;4.59;100.00;103148.16;5007049;28;20212;-76
2023/01/25 06:54:03;;;;;;;9.77;4.95;;;;;;;4.57;100.00;103159.94;5013081;28;20105;-76
2023/01/25 06:56:33;;;;;;;12.45;5.82;;;;;;;4.57;100.00;103149.69;5015188;28;20132;-77
2023/01/25 06:59:02;;;;;;;15.90;5.85;;;;;;;4.56;100.00;103145.31;5012436;28;20050;-76
2023/01/25 07:01:31;;;;;;;7.80;4.68;;;;;;;4.53;100.00;103140.78;5012619;28;20050;-77
2023/01/25 07:04:00;;;;;;;9.82;5.22;;;;;;;4.53;100.00;103145.91;5012953;28;20046;-77
2023/01/25 07:06:33;;;;;;;11.15;5.63;;;;;;;4.52;100.00;103148.34;5011211;28;20046;-75
2023/01/25 07:09:06;;;;;;;10.98;5.10;;;;;;;4.50;100.00;103147.31;5013674;28;20407;-76
2023/01/25 07:11:37;;;;;;;11.63;5.60;;;;;;;4.50;100.00;103144.75;5001145;28;20058;-77
2023/01/25 07:14:06;;;;;;;10.90;5.65;;;;;;;4.48;100.00;103153.97;5013569;28;20418;-76
2023/01/25 07:16:37;;;;;;;9.90;5.40;;;;;;;4.47;100.00;103149.59;5001652;28;20081;-76
2023/01/25 07:19:07;;;;;;;8.73;5.25;;;;;;;4.41;100.00;103150.81;5023508;28;20051;-76
2023/01/25 07:21:36;;;;;;;10.73;5.32;;;;;;;4.40;100.00;103155.81;5009979;28;20057;-75
2023/01/25 07:24:06;;;;;;;8.90;4.25;;;;;;;4.37;100.00;103158.97;5008959;28;20057;-76
2023/01/25 07:26:37;;;;;;;9.32;4.95;;;;;;;4.36;100.00;103162.31;5004373;28;20050;-76
2023/01/25 07:29:08;;;;;;;9.30;4.65;;;;;;;4.34;100.00;103168.94;5010631;28;20038;-76
2023/01/25 07:31:37;;;;;;;9.85;4.38;;;;;;;4.32;100.00;103175.59;5011267;28;20063;-76
2023/01/25 07:34:06;;;;;;;8.82;4.80;;;;;;;4.25;100.00;103168.09;5010847;28;20100;-76
2023/01/25 07:36:34;;;;;;;7.88;4.40;;;;;;;4.23;100.00;103174.72;5011213;28;20053;-76
2023/01/25 07:39:03;;;;;;;9.07;5.78;;;;;;;4.22;100.00;103190.00;5011357;28;20038;-76
2023/01/25 07:41:32;;;;;;;10.00;4.82;;;;;;;4.18;100.00;103188.78;5010232;28;20046;-75
2023/01/25 07:44:03;;;;;;;10.18;4.75;;;;;;;4.16;100.00;103192.84;5012000;28;20061;-75
2023/01/25 07:46:31;;;;;;;9.68;4.95;;;;;;;4.13;100.00;103190.00;5006052;28;20445;-75
2023/01/25 07:49:00;;;;;;;11.07;5.63;;;;;;;4.09;100.00;103193.94;5001301;28;20046;-76
2023/01/25 07:51:29;;;;;;;10.88;5.03;;;;;;;4.05;100.00;103188.38;5007066;28;21176;-76
2023/01/25 07:53:59;;;;;;;13.02;5.55;;;;;;;4.04;100.00;103181.47;5005059;28;20408;-76
2023/01/25 07:56:30;;;;;;;10.93;6.20;;;;;;;4.02;100.00;103186.44;5012592;28;20046;-75
2023/01/25 07:59:11;;;;;;;11.55;5.22;;;;;;;4.01;100.00;103184.63;5002996;28;20451;-76
2023/01/25 08:01:40;;;;;;;11.25;6.20;;;;;;;3.98;100.00;103185.22;5009318;28;20419;-75
2023/01/25 08:04:09;;;;;;;9.23;4.97;;;;;;;3.98;100.00;103186.88;5011588;28;20050;-76
2023/01/25 08:06:39;;;;;;;9.48;5.00;;;;;;;3.94;100.00;103180.59;5010439;28;20101;-75
2023/01/25 08:09:11;;;;;;;8.00;4.65;;;;;;;3.92;100.00;103179.53;5011412;28;20054;-76
2023/01/25 08:11:48;;;;;;;9.70;4.97;;;;;;;3.88;100.00;103182.56;5011421;28;20057;-75
2023/01/25 08:14:18;;;;;;;10.55;4.82;;;;;;;3.79;100.00;103166.31;5010799;28;20061;-76
2023/01/25 08:16:46;;;;;;;10.45;4.95;;;;;;;3.78;100.00;103172.19;5009912;28;20389;-76
2023/01/25 08:19:15;;;;;;;11.82;5.57;;;;;;;3.72;100.00;103177.63;5010738;28;20128;-76
2023/01/25 08:21:44;;;;;;;10.45;5.40;;;;;;;3.67;100.00;103175.38;5010615;28;20503;-76
2023/01/25 08:24:12;;;;;;;12.00;5.82;;;;;;;3.64;100.00;103167.41;4996895;28;20108;-76
2023/01/25 08:26:42;;;;;;;14.10;5.88;;;;;;;3.65;100.00;103171.78;4997647;28;20437;-76
2023/01/25 08:29:12;;;;;;;8.88;4.55;;;;;;;3.62;100.00;103163.78;5002612;28;20049;-74
2023/01/25 08:31:44;;;;;;;9.00;4.93;;;;;;;3.61;100.00;103156.88;5010850;28;20041;-75
2023/01/25 08:34:13;;;;;;;9.02;5.22;;;;;;;3.61;100.00;103149.19;5010812;28;20504;-75
2023/01/25 08:36:42;;;;;;;10.32;5.30;;;;;;;3.60;100.00;103149.94;5005404;28;20448;-75
2023/01/25 08:39:13;;;;;;;11.05;6.28;;;;;;;3.60;100.00;103152.47;5004601;28;20049;-75
2023/01/25 08:41:42;;;;;;;9.52;5.32;;;;;;;3.59;100.00;103150.69;5006377;28;20049;-75
2023/01/25 08:44:11;;;;;;;8.85;4.63;;;;;;;3.56;100.00;103159.88;5010554;28;20044;-75
2023/01/25 08:46:39;;;;;;;12.70;5.25;;;;;;;3.55;100.00;103165.78;5008777;28;20500;-75
2023/01/25 08:49:11;;;;;;;9.25;5.25;;;;;;;3.55;100.00;103169.97;5002053;28;20507;-75
2023/01/25 08:51:47;;;;;;;8.10;4.63;;;;;;;3.52;100.00;103167.13;5008422;28;21375;-75
2023/01/25 08:54:15;;;;;;;9.32;5.32;;;;;;;3.48;100.00;103160.81;5009112;28;20100;-75
2023/01/25 08:56:44;;;;;;;9.77;5.35;;;;;;;3.45;100.00;103155.38;5011011;28;20046;-75
2023/01/25 08:59:14;;;;;;;8.95;4.88;;;;;;;3.44;100.00;103151.03;5013958;28;20089;-75
2023/01/25 09:01:43;;;;;;;9.07;5.00;;;;;;;3.36;100.00;103142.59;5010289;28;20707;-75
2023/01/25 09:04:13;;;;;;;11.23;4.00;;;;;;;3.37;100.00;103169.13;5010656;28;20103;-75
2023/01/25 09:06:42;;;;;;;9.93;5.40;;;;;;;3.28;100.00;103169.13;5008512;28;20053;-75
2023/01/25 09:09:12;;;;;;;12.00;5.90;;;;;;;3.16;100.00;103170.44;5009800;28;20438;-75
2023/01/25 09:11:47;;;;;;;12.48;6.13;;;;;;;3.05;100.00;103168.53;5008494;28;20335;-74
2023/01/25 09:14:15;;;;;;;8.95;4.95;;;;;;;3.02;100.00;103166.53;4995413;28;20655;-76
2023/01/25 09:16:44;;;;;;;10.68;5.35;;;;;;;3.02;100.00;103170.75;4996942;28;20389;-75
2023/01/25 09:19:15;;;;;;;12.90;5.53;;;;;;;3.00;100.00;103177.38;4995338;28;20133;-74
2023/01/25 09:21:43;;;;;;;7.53;4.57;;;;;;;3.01;100.00;103180.09;5009775;28;20053;-75
2023/01/25 09:24:12;;;;;;;9.27;5.35;;;;;;;3.01;100.00;103180.09;4995841;28;21136;-75
2023/01/25 09:26:42;;;;;;;11.43;4.78;;;;;;;2.97;100.00;103183.09;4996647;28;20104;-75
2023/01/25 09:29:11;;;;;;;9.02;4.57;;;;;;;2.94;100.00;103183.69;5005108;28;20042;-75
2023/01/25 09:31:42;;;;;;;10.80;5.22;;;;;;;2.95;100.00;103189.69;5004282;28;20412;-75
2023/01/25 09:34:11;;;;;;;7.15;4.82;;;;;;;2.96;100.00;103186.41;5006430;28;20125;-75
2023/01/25 09:36:42;;;;;;;10.10;4.70;;;;;;;2.99;100.00;103191.81;5009619;28;20160;-75
2023/01/25 09:39:12;;;;;;;9.65;5.05;;;;;;;3.02;100.00;103192.13;5009268;28;20488;-75
2023/01/25 09:42:13;;;;;;;9.55;5.32;;;;;;;3.06;100.00;103198.44;5003375;28;20056;-75
2023/01/25 09:45:16;;;;;;;7.68;4.63;;;;;;;3.07;100.00;103196.06;5005128;28;20233;-75
2023/01/25 09:47:49;;;;;;;11.65;4.72;;;;;;;3.09;100.00;103201.31;4992843;28;20129;-75
2023/01/25 09:50:37;;;;;;;8.35;4.28;;;;;;;3.11;100.00;103200.69;5007183;28;20485;-75
2023/01/25 09:53:24;;;;;;;12.25;4.75;;;;;;;3.14;100.00;103203.59;5008698;28;20212;-76
2023/01/25 09:55:57;;;;;;;7.53;3.75;;;;;;;3.15;100.00;103191.69;5008488;28;20060;-77
2023/01/25 09:58:31;;;;;;;9.05;4.03;;;;;;;3.17;100.00;103184.16;5010976;28;20052;-76
2023/01/25 10:01:11;;;;;;;8.77;4.38;;;;;;;3.19;100.00;103190.34;5011330;28;20476;-75
2023/01/25 10:03:48;;;;;;;7.60;4.28;;;;;;;3.19;100.00;103185.22;5008112;28;20054;-75
2023/01/25 10:06:18;;;;;;;8.98;3.95;;;;;;;3.22;100.00;103200.88;4997984;28;20133;-75
2023/01/25 10:08:55;;;;;;;6.95;3.38;;;;;;;3.22;100.00;103201.75;4999491;28;20061;-75
2023/01/25 10:11:27;;;;;;;7.20;3.20;;;;;;;3.25;100.00;103201.16;5000902;28;20072;-75
2023/01/25 10:13:56;;;;;;;7.93;4.28;;;;;;;3.25;100.00;103206.28;5009125;28;20610;-75
2023/01/25 10:16:30;;;;;;;8.68;3.50;;;;;;;3.22;100.00;103201.75;5008760;28;20049;-75
2023/01/25 10:19:14;;;;;;;8.45;4.43;;;;;;;3.20;100.00;103202.38;5001360;28;20085;-76
2023/01/25 10:21:47;;;;;;;8.77;4.35;;;;;;;3.23;100.00;103187.31;5007477;28;20045;-75
2023/01/25 10:24:26;;;;;;;;;;;;;;;3.25;100.00;103196.03;4997694;28;20441;-75
2023/01/25 10:26:58;;;;;;;6.65;3.35;;;;;;;3.25;100.00;103193.47;5010160;28;19921;-75
2023/01/25 10:29:29;;;;;;;5.93;3.20;;;;;;;3.27;100.00;103197.09;4994869;28;20058;-76
2023/01/25 10:32:13;;;;;;;6.88;3.45;;;;;;;3.29;100.00;103193.94;5004220;28;20045;-75
2023/01/25 10:34:47;;;;;;;6.82;3.33;;;;;;;3.31;100.00;103201.78;5002270;28;20054;-76
2023/01/25 10:37:19;;;;;;;7.15;3.53;;;;;;;3.34;100.00;103194.38;5005392;28;20056;-76
2023/01/25 10:39:57;;;;;;;5.85;2.78;;;;;;;3.36;100.00;103191.22;5007516;28;20523;-75
2023/01/25 10:42:30;;;;;;;4.40;2.70;;;;;;;3.38;100.00;103183.69;5008554;28;20301;-76
2023/01/25 10:44:59;;;;;;;3.97;2.45;;;;;;;3.40;100.00;103187.31;5007941;28;20492;-76
2023/01/25 10:47:31;;;;;;;4.15;2.55;;;;;;;3.38;100.00;103177.69;5006764;28;20100;-75
2023/01/25 10:50:00;;;;;;;8.63;3.38;;;;;;;3.32;100.00;103184.03;5009479;28;20042;-75
2023/01/25 10:52:30;;;;;;;7.40;3.40;;;;;;;3.31;100.00;103186.41;5008771;28;20050;-75
2023/01/25 10:55:16;;;;;;;6.25;3.45;;;;;;;3.30;100.00;103188.09;5007801;28;20132;-73
2023/01/25 10:57:46;;;;;;;5.60;3.83;;;;;;;3.32;100.00;103188.22;5000086;28;20584;-75
2023/01/25 11:00:26;;;;;;;6.20;2.90;;;;;;;3.32;100.00;103189.13;5008176;28;20381;-74
2023/01/25 11:02:56;;;;;;;5.10;2.95;;;;;;;3.32;100.00;103184.03;5012135;28;20088;-75
2023/01/25 11:05:33;;;;;;;4.75;2.80;;;;;;;3.32;100.00;103189.13;5008113;28;20053;-75
2023/01/25 11:08:24;;;;;;;6.18;3.05;;;;;;;3.33;100.00;103190.03;5007462;28;20116;-75
2023/01/25 11:10:55;;;;;;;5.25;2.70;;;;;;;3.35;100.00;103188.53;4998919;28;20054;-76
2023/01/25 11:13:27;;;;;;;5.15;2.80;;;;;;;3.38;100.00;103183.69;4997470;28;20057;-75
2023/01/25 11:16:12;;;;;;;6.13;3.13;;;;;;;3.40;100.00;103187.31;4995643;28;20766;-75
2023/01/25 11:18:51;;;;;;;6.57;3.05;;;;;;;3.40;100.00;103182.19;4971225;28;20046;-76
2023/01/25 11:21:23;;;;;;;10.60;3.60;;;;;;;3.41;100.00;103191.66;4994860;28;20397;-75
2023/01/25 11:24:04;;;;;;;6.15;3.33;;;;;;;3.41;100.00;103194.22;4995674;28;20049;-75
2023/01/25 11:26:35;;;;;;;5.82;3.17;;;;;;;3.40;100.00;103197.56;4998579;28;20566;-75
2023/01/25 11:29:17;;;;;;;7.60;4.30;;;;;;;3.40;100.00;103196.66;5007437;28;20476;-75
2023/01/25 11:31:48;;;;;;;7.15;3.35;;;;;;;3.40;100.00;103199.22;5007249;28;20057;-76
2023/01/25 11:34:19;;;;;;;6.40;3.30;;;;;;;3.42;100.00;103208.84;5011569;28;20691;-75
2023/01/25 11:37:00;;;;;;;6.95;3.15;;;;;;;3.42;100.00;103206.28;5002481;28;20077;-75
2023/01/25 11:39:42;;;;;;;6.03;2.42;;;;;;;3.44;100.00;103207.34;5009504;28;20046;-75
2023/01/25 11:42:26;;;;;;;6.13;3.10;;;;;;;3.44;100.00;103215.03;5010808;28;20066;-76
2023/01/25 11:45:25;;;;;;;4.30;2.63;;;;;;;3.45;100.00;103208.25;4999832;28;20085;-75